x

Canaveral East - 120nm East Of Cape Canaveral (41010) Weather Station

12:10am - Thu 25th May 2017 All times are EDT. -4 hours from GMT.

  • Wind
    20mph, 27mph gusts
  • Sea Temp 78°f
  • Air Temp 80°f
  • Sea Pressure 1008.6mb
  • Canaveral East - 120nm East Of Cape Canaveral
  • Canaveral East - 120nm East Of Cape Canaveral

More Historic Weather Station data

Upgrade to MSW Pro to gain access to the past 30 days of data for over 8000 Wavebouys and Weather Stations around the globe.

Join Pro

Comparision Forecast

View Surf forecast
   
Thu 05/25 12:10am  -   -   -  20 27 mph 1008.6mb 78f 80f
12:00am  -   -   -  22 31 mph 1009mb 78f 80f
Wed 05/24 11:50pm 11ft 8s 7s 25 31 mph 1009mb 78f 80f
11:40pm 11ft  -  7s 27 34 mph 1009mb 78f 80f
11:30pm  -   -   -  25 31 mph 1009mb 78f 80f
11:20pm  -   -   -  25 31 mph 1009mb 78f 80f
11:10pm  -   -   -  27 34 mph 1009mb 78f 80f
11:00pm  -   -   -  29 38 mph 1009mb 78f 80f
10:50pm 12ft 8s 7s 25 34 mph 1009.1mb 79f 80f
10:40pm 12ft  -  7s 27 36 mph 1008.9mb 79f 80f
10:30pm  -   -   -  27 34 mph 1008.9mb 78f 80f
10:20pm  -   -   -  29 36 mph 1008.4mb 78f 80f
10:10pm  -   -   -  27 36 mph 1008.1mb 79f 79f
10:00pm  -   -   -  29 38 mph 1008mb 79f 76f
9:50pm 10.5ft 8s 6s 31 38 mph 1008mb 79f 75f
9:40pm 10.5ft  -  6s 36 45 mph 1008mb 79f 75f
9:30pm  -   -   -  38 51 mph 1007.8mb 79f 75f
9:20pm  -   -   -  36 49 mph 1007.4mb 79f 75f
9:10pm  -   -   -  25 31 mph 1007.1mb 79f 74f
9:00pm  -   -   -  29 43 mph 1007.5mb 79f 74f
8:50pm 10ft 8s 6s 31 45 mph 1008mb 79f 77f
8:40pm  -   -   -  25 31 mph 1007.9mb 79f 81f
8:30pm  -   -   -  29 36 mph 1007mb 79f 81f
8:20pm  -   -   -  29 36 mph 1006.9mb 79f 81f
8:10pm  -   -   -  29 36 mph 1006.5mb 79f 81f
8:00pm  -   -   -  29 36 mph 1006.4mb 79f 81f
7:50pm 9ft 7s 6s 29 36 mph 1006.1mb 79f 81f
7:40pm 9ft  -  6s 27 34 mph 1005.9mb 79f 81f
7:30pm  -   -   -  27 36 mph 1005.9mb 79f 81f
7:20pm  -   -   -  27 34 mph 1005.9mb 79f 81f
7:10pm  -   -   -  27 36 mph 1005.9mb 79f 81f
7:00pm  -   -   -  27 34 mph 1005.9mb 79f 81f
6:50pm 6.5ft 6s 5s 27 34 mph 1006mb 79f 81f
6:40pm  -   -   -  27 34 mph 1006mb 79f 81f
6:30pm  -   -   -  27 31 mph 1006.3mb 79f 81f
6:20pm  -   -   -  25 31 mph 1006.4mb 79f 81f
6:10pm  -   -   -  27 36 mph 1006.1mb 79f 81f
6:00pm  -   -   -  29 36 mph 1005.9mb 79f 81f
5:50pm 7ft 7s 6s 27 31 mph 1006.1mb 79f 81f
5:40pm 7ft  -  6s 25 31 mph 1006.5mb 79f 81f
5:30pm  -   -   -  25 31 mph 1006.6mb 79f 81f
5:20pm  -   -   -  22 29 mph 1006.8mb 79f 81f
5:10pm  -   -   -  22 29 mph 1006.9mb 79f 81f
5:00pm  -   -   -  22 29 mph 1007mb 79f 81f
4:50pm 6ft 7s 5s 22 27 mph 1007mb 79f 81f
4:40pm  -   -   -  22 29 mph 1007.1mb 79f 81f
4:30pm  -   -   -  22 27 mph 1007.3mb 79f 81f
4:20pm  -   -   -  22 27 mph 1007.4mb 79f 81f
4:10pm  -   -   -  20 25 mph 1007.3mb 79f 81f
4:00pm  -   -   -  20 25 mph 1007.4mb 79f 81f
3:50pm 6ft 6s 6s 18 25 mph 1007.6mb 79f 80f
3:40pm  -   -   -  16 20 mph 1007.8mb 79f 80f
3:30pm  -   -   -  16 20 mph 1008mb 79f 80f
3:20pm  -   -   -  16 20 mph 1008.1mb 79f 80f
3:10pm  -   -   -  16 20 mph 1008.3mb 79f 81f
3:00pm  -   -   -  18 22 mph 1008.5mb 79f 81f
2:50pm 6ft 6s 6s 18 25 mph 1008.8mb 79f 81f
2:40pm 6ft  -  6s 20 25 mph 1008.9mb 79f 81f
2:30pm  -   -   -  20 25 mph 1008.9mb 79f 80f
2:20pm  -   -   -  16 22 mph 1009mb 79f 80f
2:10pm  -   -   -  16 20 mph 1009mb 79f 80f
2:00pm  -   -   -  16 20 mph 1009mb 79f 80f
1:50pm 6ft 7s 6s 16 18 mph 1009mb 79f 80f
1:40pm 6ft  -  6s 16 20 mph 1009.3mb 79f 80f
1:30pm  -   -   -  16 20 mph 1009.5mb 79f 81f
1:20pm  -   -   -  18 22 mph 1009.5mb 79f 80f
1:10pm  -   -   -  16 20 mph 1009.8mb 79f 80f
1:00pm  -   -   -  16 20 mph 1010mb 79f 80f
12:50pm 6ft 7s 6s 16 20 mph 1010.1mb 79f 80f
12:40pm  -   -   -  16 18 mph 1010.3mb 79f 80f
12:30pm  -   -   -  16 20 mph 1010.3mb 79f 80f
12:20pm  -   -   -  16 20 mph 1010.3mb 79f 80f
12:10pm  -   -   -  18 22 mph 1010.1mb 79f 80f
12:00pm  -   -   -  16 20 mph 1010mb 79f 80f
11:50am 6.5ft 7s 6s 16 22 mph 1010mb 79f 80f
11:40am  -   -   -  16 22 mph 1010mb 79f 80f
11:30am  -   -   -  16 22 mph 1009.9mb 79f 80f
11:20am  -   -   -  16 20 mph 1009.9mb 79f 80f
11:10am  -   -   -  16 20 mph 1009.8mb 79f 80f
11:00am  -   -   -  16 22 mph 1009.9mb 79f 80f
10:50am 6.5ft 7s 6s 18 22 mph 1009.8mb 79f 80f
10:40am 6.5ft  -  6s 18 22 mph 1009.8mb 79f 80f
10:30am  -   -   -  16 20 mph 1009.9mb 79f 80f
10:20am  -   -   -  16 20 mph 1010mb 79f 80f
10:10am  -   -   -  13 18 mph 1010.1mb 79f 80f
10:00am  -   -   -  16 18 mph 1010.1mb 79f 80f
9:50am 6.5ft 7s 6s 16 20 mph 1010.1mb 79f 80f
9:40am  -   -   -  16 20 mph 1010mb 79f 80f
9:30am  -   -   -  16 20 mph 1009.9mb 79f 80f
9:20am  -   -   -  16 20 mph 1010.1mb 79f 80f
9:10am  -   -   -  16 20 mph 1010.1mb 79f 80f
9:00am  -   -   -  16 22 mph 1010.3mb 79f 80f
8:50am 7ft 6s 6s 18 22 mph 1010mb 79f 80f
8:40am  -   -   -  16 22 mph 1010mb 79f 80f
8:30am  -   -   -  18 22 mph 1010.1mb 79f 80f
8:20am  -   -   -  18 22 mph 1010.1mb 79f 80f
8:10am  -   -   -  18 22 mph 1010.3mb 79f 80f
8:00am  -   -   -  18 25 mph 1010.3mb 79f 80f
7:50am 7ft 7s 6s 18 25 mph 1010.5mb 79f 80f
7:40am 7ft  -  6s 18 22 mph 1010.4mb 79f 80f
7:30am  -   -   -  18 22 mph 1010.3mb 79f 80f
7:20am  -   -   -  18 25 mph 1010.5mb 79f 80f
7:10am  -   -   -  18 22 mph 1010.4mb 79f 80f
7:00am  -   -   -  18 25 mph 1010.3mb 79f 80f
6:50am 7ft 7s 6s 18 25 mph 1010.1mb 79f 80f
6:40am 7ft  -  6s 20 25 mph 1010.3mb 79f 80f
6:30am  -   -   -  18 25 mph 1010.1mb 79f 80f
6:20am  -   -   -  18 25 mph 1010.1mb 79f 80f
6:10am  -   -   -  18 25 mph 1010.1mb 79f 80f
6:00am  -   -   -  18 25 mph 1010mb - 80f
5:50am 7.5ft 7s 6s 18 22 mph 1010mb 79f 80f
5:40am 7.5ft  -  6s 18 25 mph 1009.9mb 79f 80f
5:30am  -   -   -  18 25 mph 1009.8mb 79f 80f
5:20am  -   -   -  18 22 mph 1009.9mb 79f 80f
5:10am  -   -   -  18 25 mph 1009.9mb 79f 80f
5:00am  -   -   -  18 22 mph 1010mb 79f 80f
4:50am 7ft 7s 6s 18 25 mph 1009.9mb 79f 80f
4:40am 7ft  -  6s 20 25 mph 1010mb 79f 80f
4:30am  -   -   -  20 25 mph 1010mb 79f 80f
4:20am  -   -   -  20 25 mph 1010mb 79f 80f
4:10am  -   -   -  20 27 mph 1010mb 79f 80f
4:00am  -   -   -  20 25 mph 1010mb 79f 80f
3:50am 6.5ft 7s 6s 18 25 mph 1010.3mb 79f 80f
3:40am 6.5ft  -  6s 20 25 mph 1010.4mb 79f 80f
3:30am  -   -   -  18 25 mph 1010.5mb 79f 80f
3:20am  -   -   -  18 25 mph 1010.4mb 79f 80f
3:10am  -   -   -  18 25 mph 1010.4mb 79f 80f
3:00am  -   -   -  18 22 mph 1010.4mb 79f 80f
2:50am 6ft 7s 6s 18 25 mph 1010.5mb 79f 80f
2:40am  -   -   -  20 25 mph 1010.5mb 79f 80f
2:30am  -   -   -  18 25 mph 1010.5mb 79f 80f
2:20am  -   -   -  18 22 mph 1010.6mb 79f 79f
2:10am  -   -   -  18 22 mph 1010.9mb 79f 78f
2:00am  -   -   -  22 29 mph 1010.9mb 79f 78f
1:50am 6ft 7s 5s 22 31 mph 1011mb 79f 77f
1:40am 6ft  -  5s 22 31 mph 1011.1mb 79f 80f
1:30am  -   -   -  20 27 mph 1011.4mb 79f 80f
1:20am  -   -   -  18 25 mph 1011.3mb 79f 80f
1:10am  -   -   -  18 25 mph 1011.3mb 79f 80f
1:00am  -   -   -  20 25 mph 1011.4mb 79f 80f
12:50am 5ft 6s 5s 22 27 mph 1011.5mb 79f 80f
12:40am  -   -   -  20 25 mph 1011.6mb 79f 80f
12:30am  -   -   -  20 25 mph 1011.8mb 79f 80f
12:20am  -   -   -  20 27 mph 1011.9mb 79f 80f
12:10am  -   -   -  18 25 mph 1012mb 79f 80f
12:00am  -   -   -  18 22 mph 1012mb 79f 80f
Tue 05/23 11:50pm 4.5ft 6s 5s 18 22 mph 1011.9mb 79f 80f
11:40pm 4.5ft  -  5s 18 22 mph 1012mb 79f 80f
11:30pm  -   -   -  18 22 mph 1012mb 79f 80f
11:20pm  -   -   -  18 25 mph 1012mb 79f 80f
11:10pm  -   -   -  18 22 mph 1011.9mb 79f 80f
11:00pm  -   -   -  20 22 mph 1011.8mb - 80f
10:50pm 4.5ft 6s 5s 18 25 mph 1011.9mb 79f 80f
10:40pm  -   -   -  20 27 mph 1012mb 79f 80f
10:30pm  -   -   -  20 25 mph 1011.9mb 79f 80f
10:20pm  -   -   -  20 25 mph 1011.6mb 79f 80f
10:10pm  -   -   -  18 22 mph 1011.5mb 79f 80f
10:00pm  -   -   -  20 22 mph 1011.5mb 79f 80f
9:50pm 4.5ft 6s 5s 18 22 mph 1011.6mb 79f 80f
9:40pm 4.5ft  -  5s 18 25 mph 1011.8mb 79f 80f
9:30pm  -   -   -  18 22 mph 1011.8mb 79f 80f
9:20pm  -   -   -  18 22 mph 1011.8mb 79f 80f
9:10pm  -   -   -  18 20 mph 1011.9mb 79f 80f
9:00pm  -   -   -  18 20 mph 1011.9mb 79f 80f
8:50pm 4ft 6s 5s 16 20 mph 1011.9mb 79f 80f
8:40pm 4ft  -  5s 18 22 mph 1011.9mb 79f 80f
8:30pm  -   -   -  18 22 mph 1011.9mb 79f 80f
8:20pm  -   -   -  18 22 mph 1011.5mb 79f 80f
8:10pm  -   -   -  18 22 mph 1011.5mb 79f 80f
8:00pm  -   -   -  16 20 mph 1011.8mb 79f -
7:50pm 4ft 6s 5s 16 20 mph 1011.5mb 79f 80f
7:40pm  -   -   -  18 22 mph 1011.5mb 79f 80f
7:30pm  -   -   -  20 25 mph 1011.4mb 79f 80f
7:20pm  -   -   -  18 22 mph 1011.4mb 79f 80f
7:10pm  -   -   -  18 22 mph 1011.3mb 79f 80f
7:00pm  -   -   -  18 22 mph 1011.3mb 79f 80f
6:50pm 3.5ft 5s 5s 18 22 mph 1011.3mb 79f 80f
6:40pm 3.5ft  -  5s 18 20 mph 1011.4mb 79f 80f
6:30pm  -   -   -  16 20 mph 1011.5mb 79f 80f
6:20pm  -   -   -  16 22 mph 1011.5mb 79f 80f
6:10pm  -   -   -  16 20 mph 1011.6mb 79f 80f
6:00pm  -   -   -  16 22 mph 1011.5mb 79f 80f
5:50pm 3.5ft 6s 5s 16 18 mph 1011.8mb 79f 80f
5:40pm  -   -   -  16 18 mph 1011.6mb 79f 80f
5:30pm  -   -   -  16 18 mph 1011.8mb - 80f
5:20pm  -   -   -  16 20 mph 1011.9mb 79f 80f
5:10pm  -   -   -  16 18 mph 1012mb 79f 80f
5:00pm  -   -   -  16 20 mph 1012.1mb - 80f
4:50pm 3.5ft 6s 5s 16 20 mph 1012.1mb 79f 80f
4:40pm 3.5ft  -  5s 16 20 mph 1012.4mb 79f 80f
4:30pm  -   -   -  16 20 mph 1012.3mb 79f 80f
4:20pm  -   -   -  18 20 mph 1012mb 79f 80f
4:10pm  -   -   -  16 20 mph 1012.1mb 79f 80f
4:00pm  -   -   -  18 22 mph 1012.1mb 79f 80f
3:50pm 3.5ft 6s 5s 16 20 mph 1012.4mb 79f 80f
3:40pm 3.5ft  -  5s 16 20 mph 1012.5mb 79f 80f
3:30pm  -   -   -  16 20 mph 1012.6mb 79f 80f
3:20pm  -   -   -  16 22 mph 1012.8mb 79f 80f
3:10pm  -   -   -  16 20 mph 1012.9mb 79f 80f
3:00pm  -   -   -  16 20 mph 1013mb - 80f
2:50pm 4ft 6s 5s 16 18 mph 1013.1mb 79f 80f
2:40pm 4ft  -  5s 16 20 mph 1013.3mb 79f 80f
2:30pm  -   -   -  13 18 mph 1013.5mb 79f 80f
2:20pm  -   -   -  16 18 mph 1013.6mb 79f 80f
2:10pm  -   -   -  16 18 mph 1013.6mb 79f 80f
2:00pm  -   -   -  16 18 mph 1013.8mb 79f -
1:50pm 4ft 6s 5s 16 20 mph 1013.8mb 79f 79f
1:40pm 4ft  -  5s 16 20 mph 1013.9mb 79f 79f
1:30pm  -   -   -  16 20 mph 1013.9mb 79f 80f
1:20pm  -   -   -  16 22 mph 1014mb 79f 79f
1:10pm  -   -   -  18 20 mph 1014.1mb 79f 79f
1:00pm  -   -   -  16 20 mph 1014.3mb 79f 80f
12:50pm 3.5ft 5s 5s 18 20 mph 1014.5mb 79f 79f
12:40pm  -   -   -  18 22 mph 1014.5mb 79f 79f
12:30pm  -   -   -  18 22 mph 1014.5mb 79f 79f
12:20pm  -   -   -  18 20 mph 1014.5mb 79f 79f
12:10pm  -   -   -  16 20 mph 1014.6mb 79f 79f
12:00pm  -   -   -  16 20 mph 1014.8mb 79f 80f
11:50am 4ft 5s 5s 16 20 mph 1014.8mb 79f 80f
11:40am  -   -   -  16 20 mph 1014.9mb 79f 80f
11:30am  -   -   -  16 20 mph 1014.9mb 79f 80f
11:20am  -   -   -  16 20 mph 1014.9mb 79f 80f
11:10am  -   -   -  16 20 mph 1015mb 79f 79f
11:00am  -   -   -  16 20 mph 1015mb 79f 79f
10:50am 3.5ft 5s 5s 16 20 mph 1015mb 79f 79f
10:40am  -   -   -  16 20 mph 1015mb 79f 79f
10:30am  -   -   -  16 20 mph 1015mb 79f 79f
10:20am  -   -   -  18 22 mph 1015.1mb 79f 79f
10:10am  -   -   -  16 20 mph 1015.3mb 79f 79f
10:00am  -   -   -  16 20 mph 1015.3mb 79f 79f
9:50am 3.5ft 5s 5s 16 20 mph 1015.1mb 79f 79f
9:40am 3.5ft  -  5s 16 20 mph 1015.3mb 79f 79f
9:30am  -   -   -  16 20 mph 1015.1mb 79f 79f
9:20am  -   -   -  16 20 mph 1015.1mb 79f 79f
9:10am  -   -   -  16 20 mph 1015.3mb 79f 79f
9:00am  -   -   -  16 20 mph 1015.3mb 79f 79f
8:50am 3.5ft 5s 5s 16 20 mph 1015.1mb 79f 79f
8:40am  -   -   -  16 20 mph 1015.3mb 79f 79f
8:30am  -   -   -  16 20 mph 1015mb 79f 79f
8:20am  -   -   -  16 20 mph 1014.9mb 79f 79f
8:10am  -   -   -  16 20 mph 1015mb 79f 79f
8:00am  -   -   -  16 20 mph 1014.9mb 79f 79f
7:50am 3.5ft 4s 5s 16 22 mph 1014.9mb 79f 79f
7:40am 3.5ft  -  5s 16 20 mph 1014.8mb 79f 79f
7:30am  -   -   -  16 20 mph 1014.6mb 79f 79f
7:20am  -   -   -  16 20 mph 1014.5mb 79f 79f
7:10am  -   -   -  16 20 mph 1014.3mb 79f 79f
7:00am  -   -   -  16 20 mph 1014.4mb 79f 79f
6:50am 3.5ft 4s 4s 16 20 mph 1014.3mb 79f 79f
6:40am 3.5ft  -  4s 18 20 mph 1014.3mb 79f 79f
6:30am  -   -   -  18 20 mph 1014.1mb 79f 79f
6:20am  -   -   -  16 20 mph 1014mb 79f 78f
6:10am  -   -   -  16 20 mph 1014mb 79f 78f
6:00am  -   -   -  18 20 mph 1014.5mb - 78f
5:50am 3.5ft 4s 4s 18 22 mph 1013.8mb 79f 78f
5:40am 3.5ft  -  4s 18 22 mph 1013.8mb 79f 78f
5:30am  -   -   -  18 20 mph 1013.6mb 79f 78f
5:20am  -   -   -  18 20 mph 1013.6mb 79f 78f
5:10am  -   -   -  18 20 mph 1013.6mb 79f 78f
5:00am  -   -   -  18 20 mph 1014mb 79f 78f
4:50am 3.5ft 4s 4s 16 20 mph 1014mb 79f 78f
4:40am  -   -   -  18 20 mph 1013.9mb 79f 78f
4:30am  -   -   -  16 20 mph 1014mb - 78f
4:20am  -   -   -  16 20 mph 1014mb 79f 78f
4:10am  -   -   -  16 20 mph 1014mb 79f 78f
4:00am  -   -   -  18 20 mph 1013.9mb 79f 78f
3:50am 3ft 4s 4s 16 20 mph 1014mb 79f 78f
3:40am 3ft  -  4s 16 20 mph 1014.1mb 79f 78f
3:30am  -   -   -  16 20 mph 1014.4mb 79f 78f
3:20am  -   -   -  16 20 mph 1014.5mb 79f 78f
3:10am  -   -   -  18 20 mph 1014.5mb - 78f
3:00am  -   -   -  18 22 mph 1014.5mb 79f 78f
2:50am 3ft 9s 4s 18 20 mph 1014.5mb 79f 78f
2:40am  -   -   -  18 20 mph 1014.6mb 79f 78f
2:30am  -   -   -  18 22 mph 1014.9mb 79f 78f
2:20am  -   -   -  18 22 mph 1015mb 79f 78f
2:10am  -   -   -  18 20 mph 1015.4mb 79f 78f
2:00am  -   -   -  18 20 mph 1015.4mb 79f 78f
1:50am 2.5ft 8s 4s 16 20 mph 1015.4mb 79f 78f
1:40am  -   -   -  16 20 mph 1015.5mb 79f 78f
1:30am  -   -   -  16 20 mph 1015.6mb 79f 78f
1:20am  -   -   -  16 20 mph 1015.9mb 79f 78f
1:10am  -   -   -  16 18 mph 1016mb 79f 78f
1:00am  -   -   -  16 18 mph 1016.3mb 79f 78f
12:50am 2.5ft 9s 4s 16 18 mph 1016.5mb 79f 78f
12:40am  -   -   -  16 18 mph 1016.6mb 79f 78f
12:30am  -   -   -  13 18 mph 1017mb 79f 78f
12:20am  -   -   -  16 18 mph 1017mb 79f 78f
12:10am  -   -   -  16 18 mph 1017mb 79f 78f
12:00am  -   -   -  16 18 mph 1017mb 79f 78f
Mon 05/22 11:50pm 2.5ft 8s 4s 16 18 mph 1017.3mb 79f 78f
11:40pm 2.5ft  -  4s 16 18 mph 1017.3mb 79f 78f
11:30pm  -   -   -  16 18 mph 1017.3mb 79f 78f
11:20pm  -   -   -  13 18 mph 1017.4mb 79f 78f
11:10pm  -   -   -  13 18 mph 1017.5mb 79f 78f
11:00pm  -   -   -  13 16 mph 1017.5mb 79f 78f
10:50pm 2.5ft 9s 4s 13 18 mph 1017.5mb 79f 78f
10:40pm 2.5ft  -  4s 13 18 mph 1017.5mb 79f 78f
10:30pm  -   -   -  16 18 mph 1017.5mb 79f 78f
10:20pm  -   -   -  16 18 mph 1017.4mb 79f 78f
10:10pm  -   -   -  16 18 mph 1017.3mb 79f 78f
10:00pm  -   -   -  13 18 mph 1017.3mb 79f 78f
9:50pm 2.5ft 9s 4s 16 18 mph 1017.1mb 79f 78f
9:40pm  -   -   -  13 18 mph 1017mb 79f 78f
9:30pm  -   -   -  16 18 mph 1017mb 79f 78f
9:20pm  -   -   -  13 18 mph 1016.8mb 79f 78f
9:10pm  -   -   -  16 18 mph 1016.5mb 79f 78f
9:00pm  -   -   -  16 18 mph 1016.5mb 79f 78f
8:50pm 2.5ft 9s 5s 16 18 mph 1016.5mb 79f 78f
8:40pm  -   -   -  13 16 mph 1016.5mb 79f 78f
8:30pm  -   -   -  13 16 mph 1016.5mb 79f 78f
8:20pm  -   -   -  13 16 mph 1016.5mb 79f 78f
8:10pm  -   -   -  13 16 mph 1016.3mb 79f 78f
8:00pm  -   -   -  11 16 mph 1016.3mb 79f -
7:50pm 2ft 8s 4s 11 13 mph 1016.4mb 79f 78f
7:40pm 2ft  -  4s 13 16 mph 1016.3mb 79f 78f
7:30pm  -   -   -  13 16 mph 1016.1mb 79f 78f
7:20pm  -   -   -  13 16 mph 1016mb 79f 78f
7:10pm  -   -   -  13 18 mph 1015.8mb 79f 78f
7:00pm  -   -   -  13 18 mph 1015.5mb 79f 78f
6:50pm 2.5ft 8s 5s 13 18 mph 1015.5mb 79f 78f
6:40pm 2.5ft  -  5s 16 18 mph 1015.5mb 79f 78f
6:30pm  -   -   -  13 18 mph 1015.9mb 79f 78f
6:20pm  -   -   -  13 18 mph 1016mb 79f 78f
6:10pm  -   -   -  13 18 mph 1015.9mb 80f 78f
6:00pm  -   -   -  13 16 mph 1016mb 80f 78f
5:50pm 2ft 9s 4s 13 16 mph 1016mb 80f 78f
5:40pm 2ft  -  4s 13 16 mph 1016.1mb 80f 78f
5:30pm  -   -   -  11 16 mph 1016.4mb 80f 78f
5:20pm  -   -   -  13 16 mph 1016.1mb 80f 78f
5:10pm  -   -   -  13 16 mph 1016.1mb 80f 78f
5:00pm  -   -   -  13 16 mph 1016.1mb 80f 78f
4:50pm 2ft 9s 4s 13 16 mph 1016.5mb 80f 78f
4:40pm  -   -   -  13 16 mph 1016.5mb 79f 78f
4:30pm  -   -   -  11 13 mph 1016.5mb 79f 78f
4:20pm  -   -   -  13 16 mph 1016.5mb 79f 78f
4:10pm  -   -   -  11 13 mph 1016.8mb 79f 78f
4:00pm  -   -   -  11 13 mph 1017mb - -
3:50pm 1.6ft 6s 5s 11 13 mph 1017mb 79f 78f
3:40pm  -   -   -  11 13 mph 1017.1mb 79f 78f
3:30pm  -   -   -  11 13 mph 1017.4mb 79f 78f
3:20pm  -   -   -  11 13 mph 1017.5mb 79f 78f
3:10pm  -   -   -  11 13 mph 1017.8mb 79f 78f
3:00pm  -   -   -  11 13 mph 1017.9mb 79f 78f
2:50pm 2ft 8s 5s 11 13 mph 1017.9mb 79f 78f
2:40pm  -   -   -  11 16 mph 1018mb - 78f
2:30pm  -   -   -  11 13 mph 1018mb 79f 78f
2:20pm  -   -   -  11 13 mph 1018mb 79f 78f
2:10pm  -   -   -  11 13 mph 1018.3mb 79f 78f
2:00pm  -   -   -  11 13 mph 1018.4mb 79f 78f
1:50pm 2ft 9s 5s 11 13 mph 1018.4mb 79f 78f
1:40pm 2ft  -  5s 11 13 mph 1018.5mb 79f 78f
1:30pm  -   -   -  11 13 mph 1018.5mb 79f 78f
1:20pm  -   -   -  11 13 mph 1018.6mb 79f 78f
1:10pm  -   -   -  11 13 mph 1018.6mb 79f 78f
1:00pm  -   -   -  11 13 mph 1019mb 79f 78f
12:50pm 2ft 8s 5s 11 13 mph 1019mb 79f 78f
12:40pm  -   -   -  11 13 mph 1019.1mb 79f 78f
12:30pm  -   -   -  11 13 mph 1019.3mb 79f 78f
12:20pm  -   -   -  9 11 mph 1019.5mb 79f 78f
12:10pm  -   -   -  9 11 mph 1019.5mb 79f 78f
12:00pm  -   -   -  9 11 mph 1019.5mb 79f 78f
11:50am 2ft 8s 5s 9 11 mph 1019.5mb 79f 78f
11:40am 2ft  -  5s 9 11 mph 1019.6mb 79f 78f
11:30am  -   -   -  9 11 mph 1019.8mb 79f 78f
11:20am  -   -   -  9 11 mph 1019.8mb 79f 78f
11:10am  -   -   -  9 11 mph 1019.8mb 79f 78f
11:00am  -   -   -  9 11 mph 1019.8mb 79f 78f
10:50am 1.6ft 8s 5s 7 9 mph 1019.8mb 79f 78f
10:40am  -   -   -  7 9 mph 1019.8mb 79f 78f
10:30am  -   -   -  7 9 mph 1019.6mb 79f 78f
10:20am  -   -   -  7 9 mph 1019.6mb 79f 78f
10:10am  -   -   -  7 9 mph 1019.9mb - 78f
10:00am  -   -   -  7 11 mph 1019.9mb 79f 78f
9:50am 2ft 8s 5s 7 9 mph 1019.8mb 79f 78f
9:40am  -   -   -  7 9 mph 1019.6mb 79f 78f
9:30am  -   -   -  9 11 mph 1019.5mb 79f 78f
9:20am  -   -   -  7 11 mph 1019.8mb 79f 78f
9:10am  -   -   -  7 9 mph 1019.9mb 79f 78f
9:00am  -   -   -  7 9 mph 1019.9mb 79f -
8:50am 2ft 9s 5s 7 9 mph 1019.8mb 79f 78f
8:40am 2ft  -  5s 7 9 mph 1019.8mb 79f 78f
8:30am  -   -   -  7 9 mph 1019.8mb 79f 78f
8:20am  -   -   -  7 9 mph 1019.8mb 79f 78f
8:10am  -   -   -  7 9 mph 1019.8mb 79f 78f
8:00am  -   -   -  7 7 mph 1019.8mb 79f 78f
7:50am 2ft 7s 5s 7 9 mph 1019.6mb 79f 78f
7:40am 2ft  -  5s 7 9 mph 1019.6mb 79f 78f
7:30am  -   -   -  7 9 mph 1019.5mb 79f 78f
7:20am  -   -   -  7 7 mph 1019.5mb 79f 77f
7:10am  -   -   -  4 7 mph 1019.5mb 79f 77f
7:00am  -   -   -  7 9 mph 1019.5mb 79f 77f
6:50am 2ft 8s 5s 7 9 mph 1019.4mb 79f 77f
6:40am 2ft  -  5s 7 9 mph 1019.1mb 79f 77f
6:30am  -   -   -  7 11 mph 1019mb 78f 77f
6:20am  -   -   -  7 9 mph 1019mb 78f 77f
6:10am  -   -   -  7 7 mph 1019mb 79f 77f
6:00am  -   -   -  4 7 mph 1018.9mb 79f 77f
5:50am 2ft 8s 5s 7 9 mph 1018.9mb 79f 77f
5:40am 2ft  -  5s 7 9 mph 1018.6mb 79f 77f
5:30am  -   -   -  7 11 mph 1018.6mb 79f 77f
5:20am  -   -   -  7 9 mph 1018.5mb 79f 77f
5:10am  -   -   -  7 7 mph 1018.5mb 79f 77f
5:00am  -   -   -  4 9 mph 1018.5mb 79f 77f
4:50am 2ft 8s 5s 4 4 mph 1018.5mb 79f 77f
4:40am  -   -   -  4 7 mph 1018.5mb 79f 77f
4:30am  -   -   -  4 9 mph 1018.5mb 79f 77f
4:20am  -   -   -  7 9 mph 1018.5mb 79f 77f
4:10am  -   -   -  7 9 mph 1018.6mb 79f 77f
4:00am  -   -   -  7 7 mph 1018.6mb 79f 77f
3:50am 2ft 7s 5s 7 9 mph 1018.8mb 79f 77f
3:40am  -   -   -  7 9 mph 1018.6mb 79f 77f
3:30am  -   -   -  7 11 mph 1018.8mb 79f 77f
3:20am  -   -   -  7 9 mph 1018.9mb 79f 77f
3:10am  -   -   -  9 11 mph 1018.9mb 79f 77f
3:00am  -   -   -  9 11 mph 1019mb 79f 77f
2:50am 2ft 8s 5s 9 13 mph 1019.1mb 79f 77f
2:40am 2ft  -  5s 9 13 mph 1019mb 79f 77f
2:30am  -   -   -  11 13 mph 1019.1mb 79f 77f
2:20am  -   -   -  11 13 mph 1019.1mb 79f 77f
2:10am  -   -   -  11 16 mph 1019.3mb 79f 77f
2:00am  -   -   -  11 13 mph 1019.5mb 79f 77f
1:50am 2ft 8s 5s 11 13 mph 1019.5mb 79f 77f
1:40am  -   -   -  11 13 mph 1019.5mb 79f 77f
1:30am  -   -   -  11 13 mph 1019.6mb 79f 77f
1:20am  -   -   -  13 16 mph 1019.5mb 79f 77f
1:10am  -   -   -  11 16 mph 1019.5mb 79f 77f
1:00am  -   -   -  11 13 mph 1019.6mb 79f 77f
12:50am 2ft 8s 5s 13 16 mph 1019.5mb 79f 77f
12:40am  -   -   -  11 13 mph 1019.5mb 79f 77f
12:30am  -   -   -  11 13 mph 1019.8mb 79f 77f
12:20am  -   -   -  11 13 mph 1019.9mb 79f 77f
12:10am  -   -   -  11 13 mph 1020mb 79f 77f
12:00am  -   -   -  11 13 mph 1020mb 79f 77f
Sun 05/21 11:50pm 2ft 8s 5s 11 13 mph 1020mb 79f 77f
11:40pm  -   -   -  11 13 mph 1020mb 79f 77f
11:30pm  -   -   -  11 13 mph 1020mb 79f 77f
11:20pm  -   -   -  11 16 mph 1020mb 79f 77f
11:10pm  -   -   -  11 16 mph 1020mb 79f 77f
11:00pm  -   -   -  11 16 mph 1020mb 79f 77f
10:50pm 2ft 8s 5s 13 16 mph 1020mb 79f 77f
10:40pm 2ft  -  5s 13 16 mph 1020mb 79f 77f
10:30pm  -   -   -  11 13 mph 1020mb 79f 77f
10:20pm  -   -   -  11 16 mph 1020mb 79f 77f
10:10pm  -   -   -  11 16 mph 1019.8mb 79f 77f
10:00pm  -   -   -  11 13 mph 1019.9mb 79f 77f
9:50pm 2ft 7s 5s 11 13 mph 1019.8mb 79f 77f
9:40pm  -   -   -  11 13 mph 1019.8mb 79f 77f
9:30pm  -   -   -  11 13 mph 1019.8mb 79f 77f
9:20pm  -   -   -  11 13 mph 1019.6mb 79f 77f
9:10pm  -   -   -  11 13 mph 1019.5mb 79f 77f
9:00pm  -   -   -  11 13 mph 1019.5mb 79f 77f
8:50pm 2ft 8s 5s 9 11 mph 1019.5mb 79f 77f
8:40pm 2ft  -  5s 9 11 mph 1019.6mb - 77f
8:30pm  -   -   -  7 11 mph 1019.8mb 79f 77f
8:20pm  -   -   -  7 9 mph 1019.9mb 79f 77f
8:10pm  -   -   -  7 9 mph 1019.8mb 79f 77f
8:00pm  -   -   -  9 11 mph 1019.6mb 79f 77f
7:50pm 2ft 7s 5s 7 9 mph 1019.5mb 79f 78f
7:40pm  -   -   -  7 9 mph 1019.5mb 79f 78f
7:30pm  -   -   -  7 9 mph 1019.5mb 79f 78f
7:20pm  -   -   -  7 11 mph 1019.4mb 79f 78f
7:10pm  -   -   -  9 9 mph 1019.3mb 79f 78f
7:00pm  -   -   -  7 9 mph 1019.3mb 79f 78f
6:50pm 2ft 7s 5s 9 11 mph 1019.3mb 79f 78f
6:40pm  -   -   -  9 11 mph 1019.1mb 79f 78f
6:30pm  -   -   -  9 11 mph 1019mb 79f 78f
6:20pm  -   -   -  9 13 mph 1019mb 79f 78f
6:10pm  -   -   -  9 13 mph 1019mb 79f 78f
6:00pm  -   -   -  11 13 mph 1019mb 79f 78f
5:50pm 2.5ft 6s 5s 9 13 mph 1019mb 79f 78f
5:40pm  -   -   -  9 13 mph 1019.1mb 79f 78f
5:30pm  -   -   -  9 11 mph 1019.1mb 79f 78f
5:20pm  -   -   -  9 11 mph 1019.1mb 79f 78f
5:10pm  -   -   -  11 11 mph 1019.1mb 79f 78f
5:00pm  -   -   -  11 13 mph 1019.3mb 79f 78f
4:50pm 2.5ft 7s 5s 9 13 mph 1019.4mb 79f 78f
4:40pm  -   -   -  9 13 mph 1019.4mb 79f 78f
4:30pm  -   -   -  9 13 mph 1019.5mb 79f 77f
4:20pm  -   -   -  11 13 mph 1019.5mb 79f 77f
4:10pm  -   -   -  11 13 mph 1019.6mb 79f 77f
4:00pm  -   -   -  11 13 mph 1019.8mb 79f 77f
3:50pm 2.5ft 7s 5s 11 13 mph 1020mb 79f 77f
3:40pm  -   -   -  11 13 mph 1019.9mb 79f 77f
3:30pm  -   -   -  11 13 mph 1020mb 79f 77f
3:20pm  -   -   -  11 13 mph 1020mb 79f 77f
3:10pm  -   -   -  11 13 mph 1020.1mb 79f 77f
3:00pm  -   -   -  11 13 mph 1020.3mb 79f 77f
2:50pm 2.5ft 7s 5s 11 13 mph 1020.3mb 79f 77f
2:40pm 2.5ft  -  5s 11 13 mph 1020.5mb 79f 77f
2:30pm  -   -   -  11 13 mph 1020.8mb 79f 77f
2:20pm  -   -   -  9 11 mph 1021mb 79f 77f
2:10pm  -   -   -  9 11 mph 1021mb 79f 77f
2:00pm  -   -   -  9 11 mph 1021.1mb 79f 76f
1:50pm 2.5ft 8s 5s 9 13 mph 1021.1mb 79f 76f
1:40pm  -   -   -  9 13 mph 1021.3mb 79f 76f
1:30pm  -   -   -  11 13 mph 1021.4mb 79f 77f
1:20pm  -   -   -  11 16 mph 1021.4mb 79f 77f
1:10pm  -   -   -  11 16 mph 1021.4mb 79f 77f
1:00pm  -   -   -  11 16 mph 1021.5mb 79f 76f
12:50pm 2.5ft 7s 4s 11 13 mph 1021.6mb 79f 76f
12:40pm  -   -   -  11 13 mph 1021.9mb 79f 76f
12:30pm  -   -   -  11 13 mph 1021.9mb 79f 76f
12:20pm  -   -   -  11 13 mph 1021.9mb 79f 75f
12:10pm  -   -   -  11 13 mph 1022mb 79f 75f
12:00pm  -   -   -  13 16 mph 1022mb 79f 74f
11:50am 2.5ft 6s 4s 16 18 mph 1022mb 79f 74f
11:40am  -   -   -  18 20 mph 1022mb 79f 74f
11:30am  -   -   -  18 20 mph 1022mb 79f 74f
11:20am  -   -   -  18 20 mph 1022mb 79f 73f
11:10am  -   -   -  18 20 mph 1022mb 79f 73f
11:00am  -   -   -  18 20 mph 1022mb - 74f
10:50am 2.5ft 7s 5s 16 20 mph 1021.8mb 79f 75f
10:40am 2.5ft  -  5s 13 18 mph 1021.8mb 79f 77f
10:30am  -   -   -  11 13 mph 1021.5mb 79f 77f
10:20am  -   -   -  11 16 mph 1021.5mb 79f 77f
10:10am  -   -   -  13 16 mph 1021.5mb 79f 77f
10:00am  -   -   -  13 16 mph 1021.5mb 79f 77f
9:50am 2.5ft 6s 5s 13 16 mph 1021.6mb 79f 77f
9:40am  -   -   -  13 16 mph 1021.5mb 79f 77f
9:30am 2.5ft  -  5s 13 18 mph 1021.4mb 79f 77f
9:20am  -   -   -  13 16 mph 1021.4mb 79f 77f
9:10am  -   -   -  13 16 mph 1021.5mb - 77f
9:00am  -   -   -  11 13 mph 1021.5mb 79f 77f
8:50am 2.5ft 7s 5s 11 16 mph 1021.5mb 79f 77f
8:40am 2.5ft  -  5s 13 16 mph 1021.5mb 79f 77f
8:30am  -   -   -  13 16 mph 1021.4mb 79f 78f
8:20am  -   -   -  13 16 mph 1021.3mb 78f 78f
8:10am  -   -   -  13 16 mph 1021.4mb 78f 77f
8:00am  -   -   -  13 16 mph 1021mb 78f 77f
7:50am 3ft 7s 4s 13 16 mph 1021mb 78f 77f
7:40am 3ft  -  4s 13 18 mph 1020.9mb 78f 77f
7:30am  -   -   -  13 18 mph 1020.9mb 78f 77f
7:20am  -   -   -  16 18 mph 1020.8mb 78f 78f
7:10am  -   -   -  13 16 mph 1020.5mb 78f 78f
7:00am  -   -   -  13 18 mph 1020.5mb 78f 77f
6:50am 3ft 7s 4s 13 18 mph 1020.5mb 79f 77f
6:40am  -   -   -  13 18 mph 1020.4mb 78f 77f
6:30am  -   -   -  13 16 mph 1020.4mb 78f 78f
6:20am  -   -   -  13 16 mph 1020.1mb 79f 78f
6:10am  -   -   -  11 16 mph 1020.3mb 79f 78f
6:00am  -   -   -  11 13 mph 1020.1mb 79f 78f
5:50am 3.5ft 5s 4s 13 16 mph 1020mb 79f 78f
5:40am  -   -   -  13 16 mph 1019.9mb 79f 78f
5:30am  -   -   -  13 16 mph 1019.8mb - 78f